Strona główna
METAR-TAF:

METAR-TAF

Lotnisko :

Port lotniczy Dżudda

Dżudda, Arabia Saudyjska

Szerokość geograficzna: 21-42N, Długość geograficzna: 039-11E, wysokość: 15 m

Aktualna obserwacja pogody

Raport powstał 54 minut temu, godzina 09:00 UTC
Wiatr 10 kt od północno-północny zachód
Temperatura 25°C
Wilgotność 47%
Ciśnienie 1016 hPa
Widzialność 10 km lub więcej
Brak chmur poniżej 1500 m i brak chmur cumulonimbus

METAR: OEJN 210900Z 33010KT CAVOK 25/13 Q1016 NOSIG

czas: 12:54 (09:54 UTC)

Prognoza

Raport powstał 4 godziny i 54 minut temu, godzina 05:00 UTC
Prognoza ważna od 21 godzina 06 UTC do 22 godzina 12 UTC
Wiatr 12 kt od północno-północny zachód w porywach dochodzący do 24 kt
Widzialność: 7000 m
bezchmurnie
Stopniowe zmiany
od 21 godzina 17 UTC do 21 godzina 19 UTC
Wiatr 10 kt od północ

TAF: OEJN 210500Z 2106/2212 34012G24KT 7000 SKC BECMG 2117/2119 36010KT

Obserwacja i prognoza pogody dla ponad 4000 lotnisk (raport METAR i TAF).

Dostępne stacje oznaczono żółtymi i czerwonymi punktami na mapie.

Najedź kursorem aby zobaczyć nazwę stacji.

Kliknij aby zobaczyć obserwacje i prognozy pogody.

Aby zmienić mapę: kliknij na zielony przycisk z czarnym krzyżykiem, aby powiększyć; na zielony przycisk z myślnikiem, aby pomniejszyć; na zielone strzałki, aby przejść do map sąsiednich.


METAR-TAF: